Eaton, New York
Current Conditions -  °F | °C
As of 12:53 PM on Monday 24 Nov 2014 (Local Time) from KRME Reporting Station
Few Clouds Few Clouds  
Wind Chill: 69°   Ceiling: Unl
Heat Index: 69°   Visibility: 10mi
Dew Point: 54°   Wind: 17mph
Humidity: 58%   Direction: 180°S
Pressure: 29.39"   Gusts: 25mph
Location:  42.85°N, 75.61°W
Report Text: KRME 241753Z 18015G22KT 10SM FEW065 21/12 A2939 RMK AO2 PK WND 20027/1730 SLP951 T02060122 10206 20083 58035
Loading
Personal Weather Stations






























Interactive Weather Map New forecast layout! Learn more

10-Day Weather Forecast

Advertisements
Track Severe Weather on mobile